createdAt,value
2022-08-28T00:00:42.338Z,5.61
2022-08-28T00:01:44.899Z,6.14
2022-08-28T00:02:47.558Z,6.17
2022-08-28T00:03:50.132Z,6.28
2022-08-28T00:04:52.685Z,5.29
2022-08-28T00:05:55.294Z,6.49
2022-08-28T00:06:58.165Z,6.31
2022-08-28T00:08:05.058Z,5.79
2022-08-28T00:09:07.681Z,6.26
2022-08-28T00:10:11.252Z,6.17
2022-08-28T00:11:15.058Z,5.95
2022-08-28T00:12:17.569Z,6.79
2022-08-28T00:13:20.650Z,6.43
2022-08-28T00:14:24.119Z,6.27
2022-08-28T00:16:40.204Z,7.26
2022-08-28T00:17:42.870Z,7.29
2022-08-28T00:18:48.457Z,7.39
2022-08-28T00:19:51.058Z,7.35
2022-08-28T00:20:53.822Z,6.36
2022-08-28T00:21:56.481Z,8.39
2022-08-28T00:22:58.932Z,6.59
2022-08-28T00:24:01.498Z,6.11
2022-08-28T00:25:07.889Z,6.25
2022-08-28T00:26:11.099Z,6.79
2022-08-28T00:27:15.445Z,6.17
2022-08-28T00:28:23.938Z,5.61
2022-08-28T00:29:24.010Z,5.91
2022-08-28T00:30:30.651Z,6.07
2022-08-28T00:31:33.611Z,6.28
2022-08-28T00:32:36.143Z,5.84
2022-08-28T00:33:38.613Z,6.64
2022-08-28T00:34:41.071Z,5.73
2022-08-28T00:35:43.670Z,5.77
2022-08-28T00:36:46.457Z,6.27
2022-08-28T00:37:49.201Z,5.50
2022-08-28T00:38:51.642Z,5.53
2022-08-28T00:39:54.264Z,6.06
2022-08-28T00:40:58.431Z,6.63
2022-08-28T00:42:01.980Z,6.43
2022-08-28T00:43:04.733Z,5.62
2022-08-28T00:44:14.862Z,5.71
2022-08-28T00:45:17.789Z,6.08
2022-08-28T00:46:21.753Z,5.64
2022-08-28T00:47:24.400Z,6.26
2022-08-28T00:48:28.071Z,5.96
2022-08-28T00:49:31.643Z,6.19
2022-08-28T00:50:34.628Z,5.44
2022-08-28T00:51:37.290Z,5.55
2022-08-28T00:52:39.760Z,5.81
2022-08-28T00:53:42.426Z,6.04
2022-08-28T00:54:58.367Z,6.47
2022-08-28T00:55:53.819Z,6.62
2022-08-28T00:56:56.558Z,6.08
2022-08-28T00:57:59.065Z,5.67
2022-08-28T00:59:03.424Z,7.22
2022-08-28T01:00:07.590Z,6.56
2022-08-28T01:01:10.309Z,6.62
2022-08-28T01:02:12.989Z,6.39
2022-08-28T01:03:16.582Z,5.97
2022-08-28T01:04:19.513Z,6.41
2022-08-28T01:05:22.001Z,6.20
2022-08-28T01:06:24.869Z,6.96
2022-08-28T01:07:27.632Z,5.55
2022-08-28T01:08:30.431Z,6.93
2022-08-28T01:09:33.087Z,6.64
2022-08-28T01:10:36.681Z,6.68
2022-08-28T01:11:39.853Z,6.70
2022-08-28T01:12:44.279Z,6.41
2022-08-28T01:13:46.911Z,6.31
2022-08-28T01:14:50.154Z,5.64
2022-08-28T01:15:54.688Z,5.68
2022-08-28T01:16:57.311Z,7.08
2022-08-28T01:18:04.690Z,6.26
2022-08-28T01:19:06.053Z,6.44
2022-08-28T01:20:11.069Z,7.02
2022-08-28T01:21:20.429Z,6.59
2022-08-28T01:22:28.129Z,6.19
2022-08-28T01:23:51.779Z,5.59
2022-08-28T01:24:55.259Z,5.31
2022-08-28T01:25:57.890Z,6.01
2022-08-28T01:27:00.510Z,5.66
2022-08-28T01:28:04.189Z,5.39
2022-08-28T01:29:06.879Z,5.45
2022-08-28T01:30:11.642Z,5.47
2022-08-28T01:31:14.559Z,6.11
2022-08-28T01:33:42.765Z,5.89
2022-08-28T01:34:45.255Z,6.44
2022-08-28T01:35:47.812Z,5.22
2022-08-28T01:36:50.707Z,5.55
2022-08-28T01:37:53.493Z,5.64
2022-08-28T01:38:57.261Z,5.75
2022-08-28T01:39:59.793Z,5.67
2022-08-28T01:41:02.505Z,5.41
2022-08-28T01:42:05.359Z,6.51
2022-08-28T01:44:27.501Z,5.45
2022-08-28T01:45:30.150Z,5.88
2022-08-28T01:47:45.352Z,6.63
2022-08-28T01:48:47.928Z,6.26
2022-08-28T01:49:53.285Z,6.35
2022-08-28T01:50:56.362Z,6.46
2022-08-28T01:51:58.929Z,6.02
2022-08-28T01:53:01.704Z,6.02
2022-08-28T01:54:04.500Z,5.46
2022-08-28T01:55:07.685Z,5.65
2022-08-28T01:56:11.867Z,6.78
2022-08-28T01:57:14.457Z,5.53
2022-08-28T01:58:18.733Z,6.71
2022-08-28T01:59:23.857Z,6.23
2022-08-28T02:00:28.348Z,5.94
2022-08-28T02:01:31.017Z,6.69
2022-08-28T02:02:33.481Z,6.41
2022-08-28T02:03:36.002Z,6.33
2022-08-28T02:04:38.493Z,5.47
2022-08-28T02:05:40.962Z,5.38
2022-08-28T02:06:43.627Z,6.83
2022-08-28T02:07:46.205Z,5.69
2022-08-28T02:08:50.566Z,6.28
2022-08-28T02:09:53.034Z,6.11
2022-08-28T02:10:55.786Z,6.65
2022-08-28T02:11:58.270Z,6.85
2022-08-28T02:13:02.694Z,6.58
2022-08-28T02:14:05.146Z,6.36
2022-08-28T02:15:08.133Z,6.01
2022-08-28T02:16:11.330Z,5.90
2022-08-28T02:17:14.082Z,6.01
2022-08-28T02:18:16.647Z,5.71
2022-08-28T02:19:19.112Z,6.17
2022-08-28T02:20:23.570Z,6.68
2022-08-28T02:21:26.220Z,5.95
2022-08-28T02:22:28.767Z,5.79
2022-08-28T02:23:31.211Z,6.21
2022-08-28T02:24:34.283Z,6.00
2022-08-28T02:25:38.780Z,6.33
2022-08-28T02:26:41.575Z,6.02
2022-08-28T02:27:44.025Z,5.61
2022-08-28T02:28:46.502Z,6.14
2022-08-28T02:29:49.032Z,5.66
2022-08-28T02:30:51.872Z,6.40
2022-08-28T02:31:54.369Z,5.22
2022-08-28T02:32:56.831Z,7.00
2022-08-28T02:34:02.109Z,5.71
2022-08-28T02:35:05.459Z,5.43
2022-08-28T02:36:10.927Z,5.42
2022-08-28T02:37:13.389Z,5.74
2022-08-28T02:38:15.886Z,5.84
2022-08-28T02:39:18.523Z,5.66
2022-08-28T02:40:23.114Z,5.25
2022-08-28T02:41:26.148Z,5.64
2022-08-28T02:42:28.624Z,5.06
2022-08-28T02:43:33.314Z,5.36
2022-08-28T02:44:35.870Z,4.79
2022-08-28T02:45:38.362Z,5.58
2022-08-28T02:46:41.141Z,5.77
2022-08-28T02:47:43.895Z,5.61
2022-08-28T02:48:46.364Z,5.71
2022-08-28T02:49:48.830Z,4.95
2022-08-28T02:50:53.548Z,5.15
2022-08-28T02:51:56.419Z,5.37
2022-08-28T02:52:58.832Z,5.51
2022-08-28T02:54:01.298Z,5.44
2022-08-28T02:55:07.351Z,5.19
2022-08-28T02:56:10.707Z,5.06
2022-08-28T02:57:13.096Z,4.77
2022-08-28T02:58:15.573Z,5.37
2022-08-28T02:59:18.442Z,5.08
2022-08-28T03:00:22.514Z,5.09
2022-08-28T03:01:25.272Z,5.51
2022-08-28T03:02:28.339Z,5.43
2022-08-28T03:03:31.036Z,4.82
2022-08-28T03:04:34.132Z,5.46
2022-08-28T03:05:36.702Z,4.96
2022-08-28T03:06:39.461Z,5.78
2022-08-28T03:07:41.964Z,4.83
2022-08-28T03:08:44.481Z,5.22
2022-08-28T03:09:49.273Z,4.83
2022-08-28T03:10:54.151Z,5.81
2022-08-28T03:11:56.728Z,5.59
2022-08-28T03:12:59.185Z,5.47
2022-08-28T03:14:01.883Z,6.06
2022-08-28T03:15:05.345Z,5.54
2022-08-28T03:16:08.349Z,5.68
2022-08-28T03:17:13.383Z,5.25
2022-08-28T03:18:18.766Z,5.65
2022-08-28T03:19:21.432Z,5.45
2022-08-28T03:20:24.194Z,5.54
2022-08-28T03:21:26.875Z,5.71
2022-08-28T03:22:29.672Z,4.96
2022-08-28T03:23:32.325Z,5.11
2022-08-28T03:24:34.821Z,5.56
2022-08-28T03:25:37.503Z,5.37
2022-08-28T03:26:40.477Z,5.47
2022-08-28T03:27:44.911Z,5.76
2022-08-28T03:28:48.222Z,6.39
2022-08-28T03:29:50.697Z,5.93
2022-08-28T03:30:53.438Z,5.03
2022-08-28T03:31:55.943Z,5.16
2022-08-28T03:32:58.441Z,5.16
2022-08-28T03:34:01.233Z,6.14
2022-08-28T03:35:06.184Z,5.87
2022-08-28T03:36:09.378Z,6.75
2022-08-28T03:37:12.398Z,6.32
2022-08-28T03:38:14.974Z,5.69
2022-08-28T03:39:17.633Z,5.80
2022-08-28T03:40:20.830Z,6.34
2022-08-28T03:41:24.063Z,5.69
2022-08-28T03:42:26.661Z,6.68
2022-08-28T03:43:29.344Z,6.03
2022-08-28T03:44:31.806Z,6.18
2022-08-28T03:45:34.397Z,5.67
2022-08-28T03:46:37.046Z,6.81
2022-08-28T03:47:40.114Z,6.54
2022-08-28T03:48:43.500Z,6.29
2022-08-28T03:49:46.948Z,5.94
2022-08-28T03:50:50.256Z,6.00
2022-08-28T03:51:54.349Z,5.94
2022-08-28T03:52:56.793Z,6.38
2022-08-28T03:53:59.453Z,6.52
2022-08-28T03:55:01.905Z,5.88
2022-08-28T03:56:11.496Z,6.09
2022-08-28T03:57:17.556Z,5.90
2022-08-28T03:58:20.168Z,6.22
2022-08-28T03:59:22.748Z,6.25
2022-08-28T04:00:28.045Z,6.61
2022-08-28T04:01:33.949Z,6.39
2022-08-28T04:02:36.797Z,6.82
2022-08-28T04:03:39.469Z,5.24
2022-08-28T04:04:42.058Z,6.39
2022-08-28T04:05:44.622Z,5.59
2022-08-28T04:06:47.409Z,6.28
2022-08-28T04:07:49.883Z,6.47
2022-08-28T04:08:52.359Z,6.07
2022-08-28T04:09:57.721Z,5.92
2022-08-28T04:11:01.141Z,6.54
2022-08-28T04:12:04.117Z,6.62
2022-08-28T04:13:06.822Z,6.34
2022-08-28T04:14:09.732Z,6.72
2022-08-28T04:15:12.390Z,6.26
2022-08-28T04:16:16.847Z,6.15
2022-08-28T04:17:19.504Z,6.87
2022-08-28T04:18:21.879Z,6.20
2022-08-28T04:19:24.510Z,5.71
2022-08-28T04:20:27.852Z,6.75
2022-08-28T04:21:30.418Z,5.78
2022-08-28T04:22:33.091Z,6.52
2022-08-28T04:23:36.767Z,5.51
2022-08-28T04:24:39.282Z,6.02
2022-08-28T04:25:41.820Z,6.35
2022-08-28T04:26:44.469Z,5.28
2022-08-28T04:27:50.071Z,6.85
2022-08-28T04:28:55.212Z,5.82
2022-08-28T04:29:57.182Z,6.04
2022-08-28T04:30:59.975Z,6.42
2022-08-28T04:32:03.488Z,5.80
2022-08-28T04:33:06.001Z,6.41
2022-08-28T04:34:08.463Z,7.20
2022-08-28T04:35:11.129Z,6.21
2022-08-28T04:36:15.617Z,6.50
2022-08-28T04:37:18.229Z,6.87
2022-08-28T04:38:20.778Z,5.87
2022-08-28T04:39:23.330Z,6.66
2022-08-28T04:40:26.051Z,6.81
2022-08-28T04:41:29.653Z,6.33
2022-08-28T04:42:32.240Z,6.41
2022-08-28T04:43:34.981Z,6.24
2022-08-28T04:44:37.581Z,6.14
2022-08-28T04:46:51.878Z,6.14
2022-08-28T04:47:54.430Z,6.73
2022-08-28T04:48:56.884Z,6.05
2022-08-28T04:51:12.524Z,6.98
2022-08-28T04:52:15.098Z,6.10
2022-08-28T04:53:18.058Z,6.81
2022-08-28T04:55:52.293Z,6.78
2022-08-28T04:56:38.051Z,7.33
2022-08-28T04:58:54.433Z,8.21
2022-08-28T04:59:56.927Z,7.29
2022-08-28T05:01:01.505Z,7.00
2022-08-28T05:02:07.103Z,7.28
2022-08-28T05:03:10.117Z,6.91
2022-08-28T05:04:12.561Z,6.57
2022-08-28T05:05:15.261Z,7.54
2022-08-28T05:06:19.629Z,7.43
2022-08-28T05:07:22.212Z,6.93
2022-08-28T05:08:26.043Z,7.24
2022-08-28T05:09:28.544Z,7.32
2022-08-28T05:11:43.522Z,6.68
2022-08-28T05:12:45.993Z,7.01
2022-08-28T05:13:51.931Z,7.15
2022-08-28T05:14:56.282Z,7.89
2022-08-28T05:15:58.829Z,6.94
2022-08-28T05:17:01.462Z,7.23
2022-08-28T05:18:04.033Z,7.31
2022-08-28T05:19:06.494Z,7.31
2022-08-28T05:20:10.101Z,6.11
2022-08-28T05:21:14.534Z,6.58
2022-08-28T05:22:17.144Z,7.08
2022-08-28T05:23:25.665Z,6.83
2022-08-28T05:24:26.785Z,7.31
2022-08-28T05:25:29.242Z,6.66
2022-08-28T05:26:32.519Z,7.28
2022-08-28T05:27:35.071Z,6.51
2022-08-28T05:28:37.721Z,7.14
2022-08-28T05:29:40.307Z,6.85
2022-08-28T05:30:44.311Z,6.76
2022-08-28T05:31:46.874Z,6.47
2022-08-28T05:32:49.281Z,6.31
2022-08-28T05:33:51.777Z,7.02
2022-08-28T05:34:54.236Z,7.43
2022-08-28T05:35:56.799Z,6.83
2022-08-28T05:36:59.580Z,6.25
2022-08-28T05:38:02.125Z,6.59
2022-08-28T05:39:05.895Z,7.39
2022-08-28T05:40:10.894Z,6.94
2022-08-28T05:41:20.584Z,6.96
2022-08-28T05:42:23.088Z,6.80
2022-08-28T05:43:27.463Z,7.26
2022-08-28T05:44:30.057Z,6.67
2022-08-28T05:45:34.622Z,6.19
2022-08-28T05:46:37.469Z,6.89
2022-08-28T05:47:39.995Z,6.87
2022-08-28T05:48:44.449Z,6.58
2022-08-28T05:49:46.903Z,6.28
2022-08-28T05:50:49.558Z,6.75
2022-08-28T05:51:52.021Z,6.27
2022-08-28T05:52:54.487Z,6.69
2022-08-28T05:53:57.405Z,6.09
2022-08-28T05:54:59.877Z,7.41
2022-08-28T05:56:04.437Z,7.23
2022-08-28T05:57:06.934Z,7.38
2022-08-28T05:59:21.680Z,6.67
2022-08-28T06:00:24.755Z,6.74
2022-08-28T06:01:32.528Z,6.85
2022-08-28T06:02:34.828Z,7.81
2022-08-28T06:03:37.725Z,6.97
2022-08-28T06:04:40.420Z,7.09
2022-08-28T06:05:43.209Z,6.49
2022-08-28T06:06:45.870Z,7.15
2022-08-28T06:07:49.353Z,6.85
2022-08-28T06:08:56.410Z,7.70
2022-08-28T06:09:58.128Z,6.26
2022-08-28T06:11:02.497Z,6.94
2022-08-28T06:12:05.733Z,7.72
2022-08-28T06:13:09.095Z,6.93
2022-08-28T06:14:11.792Z,6.95
2022-08-28T06:15:14.395Z,7.04
2022-08-28T06:16:18.805Z,7.72
2022-08-28T06:17:23.495Z,6.85
2022-08-28T06:18:25.904Z,6.33
2022-08-28T06:19:29.054Z,7.35
2022-08-28T06:20:33.818Z,6.99
2022-08-28T06:21:36.950Z,6.58
2022-08-28T06:22:39.555Z,7.26
2022-08-28T06:23:42.401Z,7.05
2022-08-28T06:24:45.037Z,7.58
2022-08-28T06:25:48.190Z,7.45
2022-08-28T06:26:50.969Z,7.72
2022-08-28T06:27:54.852Z,7.41
2022-08-28T06:29:00.949Z,6.88
2022-08-28T06:30:04.188Z,7.32
2022-08-28T06:31:24.358Z,6.95
2022-08-28T06:32:10.996Z,7.07
2022-08-28T06:33:13.579Z,7.27
2022-08-28T06:34:16.139Z,7.32
2022-08-28T06:35:18.596Z,7.63
2022-08-28T06:36:24.986Z,7.36
2022-08-28T06:37:27.491Z,7.97
2022-08-28T06:38:29.944Z,8.22
2022-08-28T06:39:32.976Z,7.25
2022-08-28T06:40:39.669Z,7.63
2022-08-28T06:41:42.436Z,7.49
2022-08-28T06:42:45.361Z,7.44
2022-08-28T06:43:47.977Z,7.37
2022-08-28T06:44:53.766Z,7.68
2022-08-28T06:45:56.479Z,7.39
2022-08-28T06:46:59.297Z,7.88
2022-08-28T06:48:02.216Z,8.51
2022-08-28T06:49:05.698Z,7.79
2022-08-28T06:50:09.573Z,9.11
2022-08-28T06:51:12.307Z,7.24
2022-08-28T06:52:14.908Z,8.24
2022-08-28T06:53:18.433Z,6.82
2022-08-28T06:54:23.262Z,8.23
2022-08-28T06:55:25.650Z,7.13
2022-08-28T06:56:31.101Z,7.15
2022-08-28T06:57:33.665Z,7.79
2022-08-28T06:58:42.089Z,7.45
2022-08-28T06:59:46.407Z,6.87
2022-08-28T07:00:55.937Z,7.78
2022-08-28T07:01:53.541Z,7.38
2022-08-28T07:02:56.621Z,7.25
2022-08-28T07:04:00.242Z,7.12
2022-08-28T07:05:03.040Z,6.72
2022-08-28T07:06:06.734Z,6.60
2022-08-28T07:07:09.397Z,6.55
2022-08-28T07:08:14.153Z,7.05
2022-08-28T07:09:17.009Z,8.93
2022-08-28T07:10:21.388Z,7.69
2022-08-28T07:11:26.946Z,7.55
2022-08-28T07:12:29.854Z,8.79
2022-08-28T07:13:33.963Z,8.12
2022-08-28T07:14:37.561Z,8.41
2022-08-28T07:15:41.853Z,9.88
2022-08-28T07:16:44.694Z,9.28
2022-08-28T07:17:47.380Z,8.95
2022-08-28T07:18:49.903Z,9.88
2022-08-28T07:19:52.546Z,9.59
2022-08-28T07:20:56.162Z,9.38
2022-08-28T07:21:58.733Z,8.95
2022-08-28T07:23:01.320Z,9.15
2022-08-28T07:24:04.053Z,9.64
2022-08-28T07:25:07.394Z,9.95
2022-08-28T07:26:11.268Z,10.12
2022-08-28T07:27:18.799Z,10.09
2022-08-28T07:28:18.272Z,10.32
2022-08-28T07:29:20.845Z,10.15
2022-08-28T07:30:23.743Z,10.79
2022-08-28T07:31:26.352Z,10.74
2022-08-28T07:32:28.862Z,10.18
2022-08-28T07:33:31.550Z,8.36
2022-08-28T07:34:36.022Z,9.28
2022-08-28T07:35:40.482Z,9.05
2022-08-28T07:36:45.184Z,8.49
2022-08-28T07:37:47.703Z,9.12
2022-08-28T07:38:50.284Z,9.25
2022-08-28T07:39:53.883Z,9.18
2022-08-28T07:40:56.502Z,9.03
2022-08-28T07:41:59.069Z,8.83
2022-08-28T07:43:01.642Z,8.43
2022-08-28T07:44:04.345Z,8.37
2022-08-28T07:45:07.488Z,8.23
2022-08-28T07:46:10.651Z,8.06
2022-08-28T07:47:16.370Z,7.99
2022-08-28T07:48:21.309Z,7.74
2022-08-28T07:49:24.743Z,7.73
2022-08-28T07:50:28.192Z,8.04
2022-08-28T07:51:30.644Z,7.52
2022-08-28T07:52:33.208Z,6.77
2022-08-28T07:53:36.583Z,7.43
2022-08-28T07:54:43.221Z,8.26
2022-08-28T07:55:45.845Z,7.59
2022-08-28T07:56:48.672Z,7.12
2022-08-28T07:57:51.170Z,8.15
2022-08-28T07:58:55.850Z,8.01
2022-08-28T07:59:58.437Z,7.96
2022-08-28T08:01:01.244Z,7.52
2022-08-28T08:02:04.522Z,7.95
2022-08-28T08:03:07.154Z,7.48
2022-08-28T08:05:21.465Z,8.76
2022-08-28T08:06:26.010Z,7.43
2022-08-28T08:07:30.389Z,8.35
2022-08-28T08:08:35.290Z,7.95
2022-08-28T08:09:38.696Z,7.75
2022-08-28T08:10:41.862Z,8.41
2022-08-28T08:11:44.937Z,8.23
2022-08-28T08:12:47.698Z,7.92
2022-08-28T08:13:50.981Z,7.87
2022-08-28T08:14:53.675Z,7.41
2022-08-28T08:16:03.710Z,7.70
2022-08-28T08:17:07.305Z,7.83
2022-08-28T08:18:10.261Z,8.24
2022-08-28T08:19:12.906Z,7.99
2022-08-28T08:20:16.910Z,7.90
2022-08-28T08:21:19.970Z,7.56
2022-08-28T08:22:22.437Z,7.93
2022-08-28T08:23:25.163Z,7.27
2022-08-28T08:24:27.931Z,7.33
2022-08-28T08:25:30.509Z,7.68
2022-08-28T08:26:36.657Z,7.08
2022-08-28T08:27:42.935Z,7.69
2022-08-28T08:28:43.603Z,7.21
2022-08-28T08:29:46.130Z,7.09
2022-08-28T08:30:48.986Z,7.51
2022-08-28T08:33:06.289Z,7.21
2022-08-28T08:34:08.887Z,8.11
2022-08-28T08:35:11.341Z,6.81
2022-08-28T08:37:28.385Z,6.34
2022-08-28T08:38:31.158Z,6.89
2022-08-28T08:39:33.897Z,7.37
2022-08-28T08:40:37.342Z,6.48
2022-08-28T08:41:48.468Z,6.49
2022-08-28T08:42:51.003Z,6.64
2022-08-28T08:45:09.573Z,6.71
2022-08-28T08:46:13.393Z,5.84
2022-08-28T08:47:37.345Z,6.29
2022-08-28T08:48:39.997Z,6.14
2022-08-28T08:49:44.463Z,6.49
2022-08-28T08:50:47.330Z,6.90
2022-08-28T08:51:54.378Z,7.45
2022-08-28T08:53:11.010Z,6.97
2022-08-28T08:54:14.788Z,6.87
2022-08-28T08:55:22.058Z,6.79
2022-08-28T08:56:25.115Z,6.12
2022-08-28T08:57:29.502Z,6.31
2022-08-28T08:58:41.926Z,6.62
2022-08-28T08:59:44.491Z,6.09
2022-08-28T09:01:05.944Z,5.82
2022-08-28T09:02:12.907Z,7.06
2022-08-28T09:03:17.482Z,6.37
2022-08-28T09:04:21.993Z,5.92
2022-08-28T09:05:42.102Z,5.59
2022-08-28T09:07:58.953Z,5.52
2022-08-28T09:09:01.930Z,5.52
2022-08-28T09:10:05.922Z,6.62
2022-08-28T09:12:24.230Z,5.92
2022-08-28T09:14:45.551Z,5.76
2022-08-28T09:15:50.846Z,6.48
2022-08-28T09:16:52.844Z,6.08
2022-08-28T09:17:56.662Z,7.31
2022-08-28T09:18:59.150Z,6.71
2022-08-28T09:21:16.850Z,7.10
2022-08-28T09:22:19.441Z,6.64
2022-08-28T09:23:26.421Z,7.28
2022-08-28T09:24:32.388Z,8.37
2022-08-28T09:25:45.922Z,8.55
2022-08-28T09:26:52.525Z,8.24
2022-08-28T09:27:55.027Z,9.16
2022-08-28T09:28:58.589Z,8.04
2022-08-28T09:30:08.018Z,8.40
2022-08-28T09:31:14.549Z,8.94
2022-08-28T09:32:34.181Z,8.86
2022-08-28T09:33:38.286Z,8.71
2022-08-28T09:37:28.441Z,7.68
2022-08-28T09:38:31.098Z,7.28
2022-08-28T09:39:33.764Z,7.25
2022-08-28T09:40:36.840Z,6.61
2022-08-28T09:41:59.442Z,6.67
2022-08-28T09:43:08.080Z,6.68
2022-08-28T09:44:12.478Z,5.83
2022-08-28T09:45:21.480Z,5.84
2022-08-28T09:46:26.509Z,5.42
2022-08-28T09:47:34.524Z,6.14
2022-08-28T09:48:47.571Z,5.56
2022-08-28T09:49:50.057Z,5.80
2022-08-28T09:50:56.847Z,5.41
2022-08-28T09:51:59.339Z,4.93
2022-08-28T09:53:09.736Z,5.47
2022-08-28T09:55:38.728Z,4.29
2022-08-28T09:56:42.022Z,4.51
2022-08-28T09:57:47.580Z,4.51
2022-08-28T09:58:55.872Z,4.03
2022-08-28T09:59:58.297Z,4.36
2022-08-28T10:01:04.394Z,4.03
2022-08-28T10:02:14.770Z,4.06
2022-08-28T10:03:20.547Z,3.84
2022-08-28T10:04:27.757Z,3.88
2022-08-28T10:05:44.482Z,4.61
2022-08-28T10:06:54.692Z,4.00
2022-08-28T10:07:59.082Z,4.04
2022-08-28T10:09:12.691Z,4.26
2022-08-28T10:10:28.211Z,4.76
2022-08-28T10:11:35.408Z,4.17
2022-08-28T10:12:42.593Z,3.88
2022-08-28T10:15:05.094Z,4.31
2022-08-28T10:17:47.633Z,5.33
2022-08-28T10:20:27.449Z,4.78
2022-08-28T10:21:32.149Z,4.59
2022-08-28T10:22:45.736Z,4.74
2022-08-28T10:23:59.443Z,4.58
2022-08-28T10:26:23.077Z,5.14
2022-08-28T10:27:30.455Z,4.54
2022-08-28T10:30:08.861Z,4.78
2022-08-28T10:32:29.737Z,4.69
2022-08-28T10:33:34.143Z,4.41
2022-08-28T10:34:44.897Z,5.59
2022-08-28T10:35:52.002Z,5.15
2022-08-28T10:37:02.826Z,4.74
2022-08-28T10:38:09.573Z,5.28
2022-08-28T10:39:14.097Z,4.84
2022-08-28T10:40:18.043Z,5.47
2022-08-28T10:41:25.331Z,4.41
2022-08-28T10:42:36.027Z,4.69
2022-08-28T10:44:55.205Z,5.06
2022-08-28T10:47:13.998Z,5.08
2022-08-28T10:48:18.386Z,4.76
2022-08-28T10:49:25.861Z,4.65
2022-08-28T10:51:45.722Z,4.44
2022-08-28T10:52:50.205Z,4.86
2022-08-28T10:53:56.959Z,4.62
2022-08-28T10:56:19.601Z,5.32
2022-08-28T10:57:25.246Z,4.56
2022-08-28T10:58:27.802Z,4.88
2022-08-28T10:59:30.766Z,5.03
2022-08-28T11:00:35.435Z,4.35
2022-08-28T11:01:39.469Z,4.31
2022-08-28T11:02:43.858Z,5.31
2022-08-28T11:03:47.579Z,4.25
2022-08-28T11:04:50.256Z,3.62
2022-08-28T11:05:54.314Z,3.87
2022-08-28T11:06:58.102Z,3.79
2022-08-28T11:08:04.267Z,3.98
2022-08-28T11:09:08.460Z,3.49
2022-08-28T11:11:38.049Z,3.61
2022-08-28T11:12:41.338Z,3.80
2022-08-28T11:15:03.587Z,3.66
2022-08-28T11:16:14.378Z,3.78
2022-08-28T11:17:24.829Z,4.12
2022-08-28T11:18:32.110Z,3.93
2022-08-28T11:19:53.148Z,4.00
2022-08-28T11:20:56.667Z,4.72
2022-08-28T11:22:03.156Z,5.17
2022-08-28T11:23:11.115Z,5.25
2022-08-28T11:24:32.605Z,5.74
2022-08-28T11:25:42.862Z,6.68
2022-08-28T11:26:57.074Z,6.22
2022-08-28T11:28:13.835Z,6.67
2022-08-28T11:29:35.161Z,7.75
2022-08-28T11:30:38.065Z,8.61
2022-08-28T11:31:40.706Z,8.03
2022-08-28T11:32:51.339Z,9.25
2022-08-28T11:33:53.937Z,9.23
2022-08-28T11:34:58.307Z,9.98
2022-08-28T11:36:00.914Z,9.19
2022-08-28T11:37:03.616Z,9.19
2022-08-28T11:38:06.152Z,9.01
2022-08-28T11:39:16.726Z,8.89
2022-08-28T11:40:29.146Z,7.91
2022-08-28T11:41:38.644Z,9.09
2022-08-28T11:42:41.328Z,9.41
2022-08-28T11:43:44.386Z,9.66
2022-08-28T11:44:46.977Z,11.48
2022-08-28T11:45:51.494Z,10.95
2022-08-28T11:46:54.468Z,10.96
2022-08-28T11:47:57.041Z,11.53
2022-08-28T11:49:00.177Z,11.02
2022-08-28T11:51:36.053Z,11.61
2022-08-28T11:54:01.517Z,11.29
2022-08-28T11:56:39.596Z,10.81
2022-08-28T11:57:44.087Z,9.44
2022-08-28T11:58:48.543Z,9.02
2022-08-28T12:00:06.805Z,9.53
2022-08-28T12:01:10.612Z,9.49
2022-08-28T12:02:31.849Z,10.84
2022-08-28T12:03:39.376Z,9.77
2022-08-28T12:04:42.036Z,9.84
2022-08-28T12:05:48.572Z,9.67
2022-08-28T12:06:56.442Z,10.01
2022-08-28T12:07:59.761Z,10.96
2022-08-28T12:09:04.139Z,9.74
2022-08-28T12:10:21.359Z,10.81
2022-08-28T12:11:41.322Z,10.01
2022-08-28T12:12:46.174Z,10.45
2022-08-28T12:15:02.088Z,10.09
2022-08-28T12:16:05.708Z,9.49
2022-08-28T12:18:40.873Z,10.44
2022-08-28T12:19:55.658Z,9.06
2022-08-28T12:20:51.553Z,12.23
2022-08-28T12:21:55.991Z,10.80
2022-08-28T12:22:59.858Z,11.62
2022-08-28T12:24:08.982Z,12.93
2022-08-28T12:25:10.397Z,13.31
2022-08-28T12:26:18.710Z,12.54
2022-08-28T12:27:21.329Z,12.58
2022-08-28T12:28:31.462Z,13.29
2022-08-28T12:31:07.226Z,13.06
2022-08-28T12:32:20.905Z,15.97
2022-08-28T12:33:37.804Z,16.52
2022-08-28T12:34:45.186Z,17.06
2022-08-28T12:35:48.406Z,16.47
2022-08-28T12:36:58.410Z,16.24
2022-08-28T12:38:03.246Z,15.86
2022-08-28T12:39:05.824Z,15.59
2022-08-28T12:40:13.897Z,16.71
2022-08-28T12:41:16.730Z,15.88
2022-08-28T12:42:20.993Z,11.92
2022-08-28T12:43:28.532Z,12.31
2022-08-28T12:44:31.012Z,12.24
2022-08-28T12:46:45.617Z,11.16
2022-08-28T12:47:48.290Z,10.56
2022-08-28T12:48:52.630Z,9.36
2022-08-28T12:49:57.749Z,10.44
2022-08-28T12:51:03.053Z,10.17
2022-08-28T12:52:16.573Z,9.42
2022-08-28T12:54:20.234Z,9.09
2022-08-28T12:55:24.572Z,9.11
2022-08-28T12:56:28.317Z,9.19
2022-08-28T12:57:30.926Z,9.10
2022-08-28T12:58:34.193Z,9.00
2022-08-28T12:59:38.386Z,9.63
2022-08-28T13:00:52.271Z,9.74
2022-08-28T13:01:56.924Z,10.18
2022-08-28T13:02:59.626Z,10.19
2022-08-28T13:05:25.513Z,10.89
2022-08-28T13:06:33.264Z,10.78
2022-08-28T13:07:40.741Z,10.64
2022-08-28T13:08:43.226Z,11.33
2022-08-28T13:09:46.522Z,10.20
2022-08-28T13:10:50.831Z,10.80
2022-08-28T13:11:53.289Z,12.11
2022-08-28T13:13:00.790Z,10.89
2022-08-28T13:14:01.332Z,10.54
2022-08-28T13:15:04.179Z,7.14
2022-08-28T13:16:10.272Z,6.94
2022-08-28T13:17:13.481Z,7.32
2022-08-28T13:19:36.249Z,8.74
2022-08-28T13:20:39.531Z,9.08
2022-08-28T13:21:49.655Z,11.86
2022-08-28T13:22:52.359Z,10.68
2022-08-28T13:23:55.413Z,11.02
2022-08-28T13:25:04.122Z,10.05
2022-08-28T13:26:07.120Z,10.87
2022-08-28T13:27:17.362Z,10.33
2022-08-28T13:28:22.756Z,8.68
2022-08-28T13:29:25.342Z,9.17
2022-08-28T13:30:32.059Z,7.46
2022-08-28T13:31:35.310Z,6.43
2022-08-28T13:32:38.107Z,7.06
2022-08-28T13:33:40.673Z,6.21
2022-08-28T13:34:47.786Z,6.41
2022-08-28T13:35:49.517Z,5.67
2022-08-28T13:36:56.312Z,5.96
2022-08-28T13:37:59.798Z,7.32
2022-08-28T13:39:04.673Z,8.02
2022-08-28T13:40:15.976Z,7.96
2022-08-28T13:41:12.502Z,5.82
2022-08-28T13:42:15.409Z,7.20
2022-08-28T13:43:17.972Z,14.25
2022-08-28T13:44:37.750Z,104.98
2022-08-28T13:45:43.635Z,25.24
2022-08-28T13:46:45.474Z,10.13
2022-08-28T13:48:58.030Z,8.46
2022-08-28T13:50:00.490Z,7.95
2022-08-28T13:51:05.542Z,7.29
2022-08-28T13:52:11.995Z,6.95
2022-08-28T13:53:16.139Z,6.68
2022-08-28T13:54:18.705Z,7.36
2022-08-28T13:55:22.723Z,7.07
2022-08-28T13:56:28.491Z,7.25
2022-08-28T13:57:30.977Z,5.97
2022-08-28T13:58:33.454Z,5.59
2022-08-28T13:59:38.193Z,7.47
2022-08-28T14:00:41.885Z,5.79
2022-08-28T14:01:44.623Z,5.69
2022-08-28T14:02:47.407Z,7.22
2022-08-28T14:03:50.041Z,6.20
2022-08-28T14:04:52.499Z,5.67
2022-08-28T14:05:54.972Z,6.07
2022-08-28T14:08:07.845Z,6.46
2022-08-28T14:09:10.902Z,5.93
2022-08-28T14:10:15.381Z,7.93
2022-08-28T14:11:18.039Z,7.63
2022-08-28T14:12:20.506Z,7.65
2022-08-28T14:13:22.978Z,8.89
2022-08-28T14:14:25.546Z,8.93
2022-08-28T14:15:28.035Z,8.57
2022-08-28T14:16:30.737Z,8.75
2022-08-28T14:17:33.242Z,10.44
2022-08-28T14:18:37.865Z,15.46
2022-08-28T14:19:40.734Z,18.25
2022-08-28T14:20:44.351Z,20.30
2022-08-28T14:21:47.007Z,18.20
2022-08-28T14:22:49.553Z,18.45
2022-08-28T14:23:52.114Z,17.39
2022-08-28T14:24:54.658Z,16.91
2022-08-28T14:25:57.127Z,18.65
2022-08-28T14:26:59.791Z,18.70
2022-08-28T14:29:14.941Z,21.86
2022-08-28T14:30:17.870Z,22.78
2022-08-28T14:31:20.364Z,22.77
2022-08-28T14:32:27.509Z,23.42
2022-08-28T14:33:30.006Z,22.40
2022-08-28T14:34:34.306Z,23.06
2022-08-28T14:35:37.668Z,22.73
2022-08-28T14:36:40.522Z,23.59
2022-08-28T14:37:43.004Z,23.18
2022-08-28T14:38:45.585Z,23.01
2022-08-28T14:39:48.155Z,25.13
2022-08-28T14:40:50.912Z,23.64
2022-08-28T14:41:55.315Z,24.90
2022-08-28T14:42:57.884Z,25.64
2022-08-28T14:44:00.439Z,25.51
2022-08-28T14:45:03.584Z,25.14
2022-08-28T14:46:10.998Z,25.46
2022-08-28T14:47:10.627Z,25.46
2022-08-28T14:48:13.193Z,24.37
2022-08-28T14:49:18.860Z,24.17
2022-08-28T14:50:22.169Z,24.07
2022-08-28T14:51:24.740Z,24.48
2022-08-28T14:52:27.173Z,23.95
2022-08-28T14:53:29.770Z,24.56
2022-08-28T14:54:32.247Z,25.66
2022-08-28T14:56:50.397Z,24.82
2022-08-28T14:57:53.365Z,26.56
2022-08-28T14:58:56.317Z,23.92
2022-08-28T15:00:00.762Z,24.92
2022-08-28T15:01:03.520Z,24.82
2022-08-28T15:02:06.038Z,25.10
2022-08-28T15:03:08.899Z,24.97
2022-08-28T15:04:13.074Z,23.37
2022-08-28T15:05:15.843Z,24.34
2022-08-28T15:06:20.259Z,25.19
2022-08-28T15:07:24.946Z,23.31
2022-08-28T15:08:27.567Z,23.46
2022-08-28T15:09:30.201Z,23.33
2022-08-28T15:10:33.262Z,23.35
2022-08-28T15:11:36.624Z,22.23
2022-08-28T15:12:39.212Z,22.33